createdAt,value
2019-01-26T00:00:43.139Z,4.05
2019-01-26T00:01:43.127Z,4.06
2019-01-26T00:02:43.115Z,4.09
2019-01-26T00:03:43.107Z,4.09
2019-01-26T00:04:43.279Z,4.05
2019-01-26T00:05:43.090Z,4.10
2019-01-26T00:06:43.071Z,4.03
2019-01-26T00:07:43.065Z,4.10
2019-01-26T00:08:43.054Z,4.06
2019-01-26T00:09:43.040Z,4.20
2019-01-26T00:10:43.061Z,4.16
2019-01-26T00:11:43.033Z,4.23
2019-01-26T00:12:43.007Z,4.17
2019-01-26T00:13:42.995Z,4.23
2019-01-26T00:14:42.985Z,4.23
2019-01-26T00:15:43.034Z,4.18
2019-01-26T00:16:43.005Z,4.16
2019-01-26T00:17:42.968Z,4.24
2019-01-26T00:18:42.940Z,4.24
2019-01-26T00:19:42.929Z,4.24
2019-01-26T00:20:42.918Z,4.23
2019-01-26T00:21:42.914Z,4.26
2019-01-26T00:22:42.934Z,4.17
2019-01-26T00:23:42.896Z,4.20
2019-01-26T00:24:42.876Z,4.16
2019-01-26T00:25:42.863Z,4.17
2019-01-26T00:26:42.853Z,4.18
2019-01-26T00:27:42.858Z,4.21
2019-01-26T00:28:42.864Z,4.23
2019-01-26T00:29:42.831Z,4.21
2019-01-26T00:30:42.820Z,4.24
2019-01-26T00:31:42.820Z,4.20
2019-01-26T00:32:42.790Z,4.16
2019-01-26T00:33:43.447Z,4.20
2019-01-26T00:34:42.807Z,4.23
2019-01-26T00:35:42.760Z,4.18
2019-01-26T00:36:42.746Z,4.17
2019-01-26T00:37:42.772Z,4.17
2019-01-26T00:38:42.727Z,4.16
2019-01-26T00:39:42.713Z,4.18
2019-01-26T00:40:42.744Z,4.20
2019-01-26T00:41:42.692Z,4.17
2019-01-26T00:42:42.684Z,4.24
2019-01-26T00:43:42.678Z,4.26
2019-01-26T00:44:42.659Z,4.21
2019-01-26T00:45:42.646Z,4.28
2019-01-26T00:46:42.680Z,4.28
2019-01-26T00:47:42.635Z,4.30
2019-01-26T00:48:42.616Z,4.31
2019-01-26T00:49:42.621Z,4.27
2019-01-26T00:50:42.611Z,4.27
2019-01-26T00:51:42.596Z,4.38
2019-01-26T00:52:42.622Z,4.27
2019-01-26T00:53:42.575Z,4.38
2019-01-26T00:54:42.550Z,4.27
2019-01-26T00:55:42.564Z,4.34
2019-01-26T00:56:42.531Z,4.31
2019-01-26T00:57:42.519Z,4.28
2019-01-26T00:58:42.556Z,4.26
2019-01-26T00:59:42.497Z,4.27
2019-01-26T01:00:42.493Z,4.27
2019-01-26T01:01:42.473Z,4.26
2019-01-26T01:02:42.465Z,4.34
2019-01-26T01:03:42.463Z,4.26
2019-01-26T01:04:42.477Z,4.28
2019-01-26T01:05:42.440Z,4.41
2019-01-26T01:06:42.429Z,4.35
2019-01-26T01:07:42.540Z,4.39
2019-01-26T01:08:42.505Z,4.35
2019-01-26T01:09:42.493Z,4.36
2019-01-26T01:10:42.423Z,4.41
2019-01-26T01:11:42.373Z,4.42
2019-01-26T01:12:42.356Z,4.41
2019-01-26T01:13:42.353Z,4.41
2019-01-26T01:14:42.346Z,4.35
2019-01-26T01:15:42.343Z,4.35
2019-01-26T01:16:42.361Z,4.31
2019-01-26T01:17:42.310Z,4.39
2019-01-26T01:18:42.299Z,4.35
2019-01-26T01:19:42.300Z,4.41
2019-01-26T01:20:42.279Z,4.31
2019-01-26T01:21:42.292Z,4.35
2019-01-26T01:22:42.304Z,4.39
2019-01-26T01:23:42.308Z,4.39
2019-01-26T01:24:42.244Z,4.28
2019-01-26T01:25:42.215Z,4.38
2019-01-26T01:26:42.207Z,4.43
2019-01-26T01:27:42.208Z,4.38
2019-01-26T01:28:42.332Z,4.35
2019-01-26T01:29:42.173Z,4.34
2019-01-26T01:30:42.161Z,4.38
2019-01-26T01:31:42.154Z,4.35
2019-01-26T01:32:42.179Z,4.38
2019-01-26T01:33:42.129Z,4.36
2019-01-26T01:34:42.166Z,4.35
2019-01-26T01:35:42.110Z,4.30
2019-01-26T01:36:42.095Z,4.35
2019-01-26T01:37:42.088Z,4.35
2019-01-26T01:38:42.088Z,4.38
2019-01-26T01:39:42.064Z,4.34
2019-01-26T01:40:42.081Z,4.35
2019-01-26T01:41:42.045Z,4.39
2019-01-26T01:42:42.033Z,4.41
2019-01-26T01:43:42.029Z,4.39
2019-01-26T01:44:42.014Z,4.39
2019-01-26T01:45:42.001Z,4.36
2019-01-26T01:46:43.063Z,4.35
2019-01-26T01:47:42.023Z,4.36
2019-01-26T01:48:41.966Z,4.36
2019-01-26T01:49:41.963Z,4.36
2019-01-26T01:50:41.999Z,4.30
2019-01-26T01:51:41.972Z,4.38
2019-01-26T01:52:42.013Z,4.39
2019-01-26T01:53:41.913Z,4.34
2019-01-26T01:54:41.901Z,4.36
2019-01-26T01:55:41.891Z,4.31
2019-01-26T01:56:41.885Z,4.38
2019-01-26T01:57:41.879Z,4.36
2019-01-26T01:58:41.891Z,4.35
2019-01-26T01:59:41.850Z,4.34
2019-01-26T02:00:41.837Z,4.38
2019-01-26T02:01:41.835Z,4.42
2019-01-26T02:02:41.820Z,4.24
2019-01-26T02:03:41.813Z,4.36
2019-01-26T02:04:41.834Z,4.34
2019-01-26T02:05:41.784Z,4.30
2019-01-26T02:06:41.777Z,4.31
2019-01-26T02:07:41.763Z,4.28
2019-01-26T02:08:41.754Z,4.26
2019-01-26T02:09:41.777Z,4.28
2019-01-26T02:10:41.775Z,4.27
2019-01-26T02:11:41.721Z,4.26
2019-01-26T02:12:41.708Z,4.30
2019-01-26T02:13:41.698Z,4.28
2019-01-26T02:14:41.689Z,4.26
2019-01-26T02:15:41.680Z,4.41
2019-01-26T02:16:41.702Z,4.34
2019-01-26T02:17:41.654Z,4.31
2019-01-26T02:18:41.646Z,4.34
2019-01-26T02:19:41.634Z,4.46
2019-01-26T02:20:41.623Z,4.39
2019-01-26T02:21:41.649Z,4.39
2019-01-26T02:22:41.650Z,4.42
2019-01-26T02:23:41.590Z,4.42
2019-01-26T02:24:41.580Z,4.42
2019-01-26T02:25:41.571Z,4.34
2019-01-26T02:26:41.565Z,4.30
2019-01-26T02:27:41.548Z,4.31
2019-01-26T02:28:41.588Z,4.28
2019-01-26T02:29:41.542Z,4.39
2019-01-26T02:30:41.517Z,4.41
2019-01-26T02:31:41.510Z,4.43
2019-01-26T02:32:41.493Z,4.38
2019-01-26T02:33:41.483Z,4.42
2019-01-26T02:34:41.500Z,4.41
2019-01-26T02:35:41.475Z,4.42
2019-01-26T02:36:41.454Z,4.41
2019-01-26T02:37:41.443Z,4.54
2019-01-26T02:38:41.433Z,4.41
2019-01-26T02:39:41.421Z,4.49
2019-01-26T02:40:41.473Z,4.46
2019-01-26T02:41:41.413Z,4.54
2019-01-26T02:42:41.389Z,4.51
2019-01-26T02:43:41.375Z,4.54
2019-01-26T02:44:41.379Z,4.51
2019-01-26T02:45:41.353Z,4.57
2019-01-26T02:46:41.396Z,4.60
2019-01-26T02:47:41.352Z,4.59
2019-01-26T02:48:41.329Z,4.60
2019-01-26T02:49:41.312Z,4.54
2019-01-26T02:50:41.301Z,4.59
2019-01-26T02:51:41.289Z,4.60
2019-01-26T02:52:41.481Z,4.59
2019-01-26T02:53:41.278Z,4.60
2019-01-26T02:54:41.258Z,4.64
2019-01-26T02:55:41.283Z,4.69
2019-01-26T02:56:41.245Z,4.67
2019-01-26T02:57:41.229Z,4.74
2019-01-26T02:58:41.401Z,4.74
2019-01-26T02:59:41.219Z,4.74
2019-01-26T03:00:41.196Z,4.69
2019-01-26T03:01:41.186Z,4.78
2019-01-26T03:02:41.176Z,4.74
2019-01-26T03:03:41.161Z,4.72
2019-01-26T03:04:41.178Z,4.83
2019-01-26T03:05:41.149Z,4.78
2019-01-26T03:06:41.128Z,4.88
2019-01-26T03:07:41.121Z,4.88
2019-01-26T03:08:41.111Z,4.78
2019-01-26T03:09:41.107Z,4.79
2019-01-26T03:10:41.123Z,4.85
2019-01-26T03:11:41.094Z,4.86
2019-01-26T03:12:41.064Z,4.83
2019-01-26T03:13:41.055Z,4.78
2019-01-26T03:14:41.041Z,4.86
2019-01-26T03:15:41.607Z,4.89
2019-01-26T03:16:41.053Z,4.82
2019-01-26T03:17:41.027Z,4.85
2019-01-26T03:18:41.005Z,4.86
2019-01-26T03:19:40.987Z,4.79
2019-01-26T03:20:40.976Z,4.79
2019-01-26T03:21:40.966Z,4.74
2019-01-26T03:22:40.993Z,4.85
2019-01-26T03:23:40.964Z,4.79
2019-01-26T03:24:40.940Z,4.79
2019-01-26T03:25:40.926Z,4.83
2019-01-26T03:26:40.912Z,4.74
2019-01-26T03:27:40.902Z,4.77
2019-01-26T03:28:40.945Z,4.82
2019-01-26T03:29:40.901Z,4.74
2019-01-26T03:30:40.870Z,4.78
2019-01-26T03:31:40.859Z,4.85
2019-01-26T03:32:40.876Z,4.82
2019-01-26T03:33:40.837Z,4.86
2019-01-26T03:34:40.857Z,4.79
2019-01-26T03:35:40.829Z,4.88
2019-01-26T03:36:40.824Z,4.94
2019-01-26T03:37:40.803Z,4.85
2019-01-26T03:38:40.784Z,4.86
2019-01-26T03:39:40.774Z,4.96
2019-01-26T03:40:40.799Z,4.82
2019-01-26T03:41:40.751Z,4.88
2019-01-26T03:42:40.755Z,4.83
2019-01-26T03:43:40.730Z,4.91
2019-01-26T03:44:40.718Z,4.94
2019-01-26T03:45:40.718Z,5.00
2019-01-26T03:46:40.736Z,4.94
2019-01-26T03:47:40.690Z,4.82
2019-01-26T03:48:40.684Z,4.91
2019-01-26T03:49:40.664Z,5.01
2019-01-26T03:50:40.658Z,4.93
2019-01-26T03:51:40.647Z,4.98
2019-01-26T03:52:40.669Z,4.98
2019-01-26T03:53:40.621Z,4.82
2019-01-26T03:54:40.638Z,4.89
2019-01-26T03:55:40.602Z,4.93
2019-01-26T03:56:40.593Z,4.97
2019-01-26T03:57:40.579Z,4.97
2019-01-26T03:58:40.688Z,4.93
2019-01-26T03:59:40.557Z,4.98
2019-01-26T04:00:40.570Z,4.96
2019-01-26T04:01:40.538Z,4.96
2019-01-26T04:02:40.529Z,4.91
2019-01-26T04:03:40.521Z,4.98
2019-01-26T04:04:40.559Z,4.93
2019-01-26T04:05:40.499Z,4.86
2019-01-26T04:06:40.511Z,4.77
2019-01-26T04:07:40.471Z,4.86
2019-01-26T04:08:40.461Z,4.78
2019-01-26T04:09:40.450Z,4.85
2019-01-26T04:10:40.480Z,4.94
2019-01-26T04:11:40.428Z,4.98
2019-01-26T04:12:40.440Z,4.96
2019-01-26T04:13:40.409Z,4.96
2019-01-26T04:14:40.398Z,4.97
2019-01-26T04:15:40.389Z,4.94
2019-01-26T04:16:40.434Z,4.98
2019-01-26T04:17:40.372Z,4.89
2019-01-26T04:18:40.364Z,4.93
2019-01-26T04:19:40.342Z,4.89
2019-01-26T04:20:40.340Z,4.96
2019-01-26T04:21:40.323Z,4.96
2019-01-26T04:22:40.349Z,4.89
2019-01-26T04:23:40.303Z,4.98
2019-01-26T04:24:40.311Z,5.00
2019-01-26T04:25:40.277Z,5.03
2019-01-26T04:26:40.269Z,4.97
2019-01-26T04:27:40.257Z,5.01
2019-01-26T04:28:40.298Z,4.98
2019-01-26T04:29:40.234Z,4.94
2019-01-26T04:30:40.237Z,4.98
2019-01-26T04:31:40.217Z,4.98
2019-01-26T04:32:40.202Z,5.01
2019-01-26T04:33:40.193Z,5.00
2019-01-26T04:34:40.226Z,5.01
2019-01-26T04:35:40.170Z,4.91
2019-01-26T04:36:40.168Z,5.01
2019-01-26T04:37:40.149Z,4.98
2019-01-26T04:38:40.138Z,5.11
2019-01-26T04:39:40.127Z,5.01
2019-01-26T04:40:40.156Z,5.09
2019-01-26T04:41:40.105Z,5.09
2019-01-26T04:42:40.108Z,5.14
2019-01-26T04:43:40.088Z,5.14
2019-01-26T04:44:40.072Z,5.09
2019-01-26T04:45:40.061Z,5.14
2019-01-26T04:46:40.085Z,5.04
2019-01-26T04:47:40.044Z,5.15
2019-01-26T04:48:40.044Z,5.07
2019-01-26T04:49:40.019Z,5.21
2019-01-26T04:50:40.014Z,5.15
2019-01-26T04:51:39.998Z,5.19
2019-01-26T04:52:40.031Z,5.06
2019-01-26T04:53:39.980Z,5.19
2019-01-26T04:54:39.978Z,5.24
2019-01-26T04:55:39.953Z,5.07
2019-01-26T04:56:39.945Z,5.12
2019-01-26T04:57:39.930Z,5.21
2019-01-26T04:58:39.969Z,5.22
2019-01-26T04:59:39.915Z,5.11
2019-01-26T05:00:39.916Z,5.19
2019-01-26T05:01:39.889Z,5.16
2019-01-26T05:02:39.884Z,5.18
2019-01-26T05:03:39.866Z,5.19
2019-01-26T05:04:39.915Z,5.07
2019-01-26T05:05:39.845Z,5.27
2019-01-26T05:06:39.848Z,5.32
2019-01-26T05:07:39.823Z,5.29
2019-01-26T05:08:39.816Z,5.22
2019-01-26T05:09:39.804Z,5.19
2019-01-26T05:10:39.820Z,5.30
2019-01-26T05:11:39.781Z,5.34
2019-01-26T05:12:39.778Z,5.32
2019-01-26T05:13:39.772Z,5.32
2019-01-26T05:14:39.751Z,5.27
2019-01-26T05:15:39.738Z,5.22
2019-01-26T05:16:39.767Z,5.30
2019-01-26T05:17:39.834Z,5.22
2019-01-26T05:18:39.716Z,5.19
2019-01-26T05:19:39.693Z,5.30
2019-01-26T05:20:39.684Z,5.21
2019-01-26T05:21:39.673Z,5.29
2019-01-26T05:22:39.711Z,5.27
2019-01-26T05:23:39.651Z,5.24
2019-01-26T05:24:39.646Z,5.30
2019-01-26T05:25:39.628Z,5.32
2019-01-26T05:26:39.618Z,5.22
2019-01-26T05:27:39.607Z,5.25
2019-01-26T05:28:39.626Z,5.25
2019-01-26T05:29:39.597Z,5.25
2019-01-26T05:30:39.581Z,5.22
2019-01-26T05:31:39.563Z,5.27
2019-01-26T05:32:39.557Z,5.21
2019-01-26T05:33:39.543Z,5.22
2019-01-26T05:34:39.568Z,5.24
2019-01-26T05:35:39.520Z,5.25
2019-01-26T05:36:39.515Z,5.25
2019-01-26T05:37:39.498Z,5.27
2019-01-26T05:38:39.487Z,5.29
2019-01-26T05:39:39.476Z,5.25
2019-01-26T05:40:39.747Z,5.25
2019-01-26T05:41:39.462Z,5.27
2019-01-26T05:42:39.455Z,5.29
2019-01-26T05:43:39.449Z,5.32
2019-01-26T05:44:39.423Z,5.36
2019-01-26T05:45:39.420Z,5.36
2019-01-26T05:46:39.436Z,5.33
2019-01-26T05:47:47.669Z,5.32
2019-01-26T05:48:40.378Z,5.44
2019-01-26T05:49:39.381Z,5.44
2019-01-26T05:50:39.363Z,5.40
2019-01-26T05:51:39.346Z,5.43
2019-01-26T05:52:39.391Z,5.33
2019-01-26T05:53:39.325Z,5.36
2019-01-26T05:54:39.316Z,5.48
2019-01-26T05:55:39.318Z,5.47
2019-01-26T05:56:39.296Z,5.43
2019-01-26T05:57:39.282Z,5.41
2019-01-26T05:58:39.310Z,5.36
2019-01-26T05:59:39.259Z,5.39
2019-01-26T06:00:39.257Z,5.43
2019-01-26T06:01:39.252Z,5.40
2019-01-26T06:02:39.229Z,5.43
2019-01-26T06:03:39.217Z,5.48
2019-01-26T06:04:39.255Z,5.43
2019-01-26T06:05:39.195Z,5.41
2019-01-26T06:06:39.185Z,5.43
2019-01-26T06:07:39.185Z,5.40
2019-01-26T06:08:39.172Z,5.40
2019-01-26T06:09:39.188Z,5.43
2019-01-26T06:10:39.190Z,5.40
2019-01-26T06:11:39.131Z,5.47
2019-01-26T06:12:39.124Z,5.48
2019-01-26T06:13:39.133Z,5.37
2019-01-26T06:14:39.103Z,5.41
2019-01-26T06:15:39.090Z,5.43
2019-01-26T06:16:39.115Z,5.34
2019-01-26T06:17:39.067Z,5.44
2019-01-26T06:18:39.055Z,5.50
2019-01-26T06:19:39.058Z,5.58
2019-01-26T06:20:39.034Z,5.51
2019-01-26T06:21:39.023Z,5.58
2019-01-26T06:22:39.044Z,5.54
2019-01-26T06:23:39.006Z,5.52
2019-01-26T06:24:38.992Z,5.48
2019-01-26T06:25:38.999Z,5.52
2019-01-26T06:26:38.970Z,5.59
2019-01-26T06:27:38.959Z,5.58
2019-01-26T06:28:38.984Z,5.54
2019-01-26T06:29:38.944Z,5.58
2019-01-26T06:30:38.929Z,5.50
2019-01-26T06:31:38.939Z,5.54
2019-01-26T06:32:38.905Z,5.51
2019-01-26T06:33:38.894Z,5.51
2019-01-26T06:34:38.932Z,5.52
2019-01-26T06:35:38.873Z,5.47
2019-01-26T06:36:38.862Z,5.48
2019-01-26T06:37:38.870Z,5.43
2019-01-26T06:38:38.840Z,5.48
2019-01-26T06:39:38.829Z,5.44
2019-01-26T06:40:38.864Z,5.41
2019-01-26T06:41:38.813Z,5.43
2019-01-26T06:42:38.796Z,5.37
2019-01-26T06:43:38.804Z,5.39
2019-01-26T06:44:38.780Z,5.37
2019-01-26T06:45:38.773Z,5.36
2019-01-26T06:46:38.805Z,5.47
2019-01-26T06:47:38.743Z,5.36
2019-01-26T06:48:38.731Z,5.36
2019-01-26T06:49:38.730Z,5.32
2019-01-26T06:50:38.715Z,5.37
2019-01-26T06:51:38.700Z,5.43
2019-01-26T06:52:38.738Z,5.48
2019-01-26T06:53:38.692Z,5.39
2019-01-26T06:54:38.684Z,5.34
2019-01-26T06:55:38.680Z,5.39
2019-01-26T06:56:38.653Z,5.50
2019-01-26T06:57:38.644Z,5.57
2019-01-26T06:58:38.686Z,5.54
2019-01-26T06:59:38.636Z,5.54
2019-01-26T07:00:38.624Z,5.54
2019-01-26T07:01:38.607Z,5.51
2019-01-26T07:02:38.588Z,5.50
2019-01-26T07:03:38.598Z,5.55
2019-01-26T07:04:38.618Z,5.48
2019-01-26T07:05:38.565Z,5.58
2019-01-26T07:06:38.550Z,5.51
2019-01-26T07:07:38.548Z,5.41
2019-01-26T07:08:38.551Z,5.48
2019-01-26T07:09:38.526Z,5.47
2019-01-26T07:10:38.581Z,5.41
2019-01-26T07:11:38.513Z,5.37
2019-01-26T07:12:38.474Z,5.43
2019-01-26T07:13:38.462Z,5.43
2019-01-26T07:14:38.452Z,5.39
2019-01-26T07:15:38.461Z,5.39
2019-01-26T07:16:38.477Z,5.39
2019-01-26T07:17:38.420Z,5.36
2019-01-26T07:18:38.414Z,5.36
2019-01-26T07:19:38.467Z,5.39
2019-01-26T07:20:38.404Z,5.47
2019-01-26T07:21:38.382Z,5.47
2019-01-26T07:22:38.435Z,5.41
2019-01-26T07:23:38.373Z,5.47
2019-01-26T07:24:38.345Z,5.43
2019-01-26T07:25:38.342Z,5.44
2019-01-26T07:26:38.342Z,5.37
2019-01-26T07:27:38.322Z,5.48
2019-01-26T07:28:38.382Z,5.44
2019-01-26T07:29:38.309Z,5.51
2019-01-26T07:30:38.314Z,5.43
2019-01-26T07:31:38.271Z,5.54
2019-01-26T07:32:38.269Z,5.57
2019-01-26T07:33:38.256Z,5.50
2019-01-26T07:34:38.271Z,5.54
2019-01-26T07:35:38.230Z,5.54
2019-01-26T07:36:38.262Z,5.57
2019-01-26T07:37:38.283Z,5.58
2019-01-26T07:38:38.212Z,5.58
2019-01-26T07:39:38.185Z,5.58
2019-01-26T07:40:38.245Z,5.58
2019-01-26T07:41:38.163Z,5.65
2019-01-26T07:42:38.158Z,5.69
2019-01-26T07:43:38.149Z,5.66
2019-01-26T07:44:38.136Z,5.66
2019-01-26T07:45:38.128Z,5.69
2019-01-26T07:46:38.156Z,5.80
2019-01-26T07:47:38.110Z,5.79
2019-01-26T07:48:38.108Z,5.80
2019-01-26T07:49:38.076Z,5.85
2019-01-26T07:50:38.069Z,5.80
2019-01-26T07:51:38.061Z,5.85
2019-01-26T07:52:38.083Z,5.82
2019-01-26T07:53:38.042Z,5.93
2019-01-26T07:54:38.028Z,5.90
2019-01-26T07:55:38.008Z,5.93
2019-01-26T07:56:38.007Z,5.90
2019-01-26T07:57:38.001Z,5.88
2019-01-26T07:58:38.028Z,5.94
2019-01-26T07:59:37.990Z,5.90
2019-01-26T08:00:37.962Z,6.02
2019-01-26T08:01:37.951Z,6.05
2019-01-26T08:02:37.935Z,6.12
2019-01-26T08:03:37.933Z,6.11
2019-01-26T08:04:37.971Z,6.25
2019-01-26T08:05:37.907Z,6.15
2019-01-26T08:06:37.902Z,6.16
2019-01-26T08:07:37.884Z,6.27
2019-01-26T08:08:37.923Z,6.13
2019-01-26T08:09:37.879Z,6.15
2019-01-26T08:10:37.935Z,6.21
2019-01-26T08:11:37.841Z,6.19
2019-01-26T08:12:37.841Z,6.28
2019-01-26T08:13:37.846Z,6.27
2019-01-26T08:14:37.802Z,6.25
2019-01-26T08:15:37.857Z,6.37
2019-01-26T08:16:37.827Z,6.35
2019-01-26T08:17:37.792Z,6.46
2019-01-26T08:18:37.760Z,6.53
2019-01-26T08:19:37.753Z,6.64
2019-01-26T08:20:37.744Z,6.61
2019-01-26T08:21:37.726Z,6.68
2019-01-26T08:22:37.754Z,6.67
2019-01-26T08:23:37.722Z,6.68
2019-01-26T08:24:37.712Z,6.78
2019-01-26T08:25:37.693Z,6.75
2019-01-26T08:26:37.677Z,6.78
2019-01-26T08:27:37.671Z,6.83
2019-01-26T08:28:37.717Z,6.85
2019-01-26T08:29:37.660Z,6.86
2019-01-26T08:30:37.629Z,6.97
2019-01-26T08:31:37.625Z,7.00
2019-01-26T08:32:37.637Z,7.03
2019-01-26T08:33:37.638Z,7.01
2019-01-26T08:34:37.625Z,7.06
2019-01-26T08:35:37.610Z,7.03
2019-01-26T08:36:37.570Z,7.00
2019-01-26T08:37:37.569Z,6.96
2019-01-26T08:38:37.575Z,7.00
2019-01-26T08:39:37.607Z,7.04
2019-01-26T08:40:37.559Z,7.01
2019-01-26T08:41:37.536Z,7.01
2019-01-26T08:42:37.498Z,7.07
2019-01-26T08:43:37.491Z,7.08
2019-01-26T08:44:37.485Z,7.19
2019-01-26T08:45:37.499Z,7.13
2019-01-26T08:46:37.639Z,7.15
2019-01-26T08:47:37.475Z,7.13
2019-01-26T08:48:37.436Z,7.10
2019-01-26T08:49:37.439Z,7.25
2019-01-26T08:50:37.427Z,7.28
2019-01-26T08:51:37.411Z,7.24
2019-01-26T08:52:37.435Z,7.18
2019-01-26T08:53:37.383Z,7.21
2019-01-26T08:54:37.405Z,7.24
2019-01-26T08:55:37.366Z,7.21
2019-01-26T08:56:37.364Z,7.25
2019-01-26T08:57:37.357Z,7.28
2019-01-26T08:58:37.356Z,7.25
2019-01-26T08:59:37.321Z,7.25
2019-01-26T09:00:37.314Z,7.24
2019-01-26T09:01:37.325Z,7.22
2019-01-26T09:02:37.312Z,7.28
2019-01-26T09:03:37.274Z,7.24
2019-01-26T09:04:37.305Z,7.18
2019-01-26T09:05:37.281Z,7.18
2019-01-26T09:06:37.237Z,7.26
2019-01-26T09:07:37.231Z,7.22
2019-01-26T09:08:37.224Z,7.31
2019-01-26T09:09:37.208Z,7.28
2019-01-26T09:10:37.265Z,7.26
2019-01-26T09:11:37.189Z,7.26
2019-01-26T09:12:37.181Z,7.26
2019-01-26T09:13:37.160Z,7.25
2019-01-26T09:14:37.165Z,7.25
2019-01-26T09:15:37.141Z,7.21
2019-01-26T09:16:37.190Z,7.21
2019-01-26T09:17:37.121Z,7.25
2019-01-26T09:18:38.838Z,7.25
2019-01-26T09:19:38.267Z,7.22
2019-01-26T09:20:37.133Z,7.26
2019-01-26T09:21:37.080Z,7.29
2019-01-26T09:22:37.127Z,7.29
2019-01-26T09:23:37.052Z,7.33
2019-01-26T09:24:37.043Z,7.26
2019-01-26T09:25:37.029Z,7.22
2019-01-26T09:26:37.025Z,7.36
2019-01-26T09:27:37.020Z,7.37
2019-01-26T09:28:37.038Z,7.42
2019-01-26T09:29:37.015Z,7.43
2019-01-26T09:30:36.984Z,7.37
2019-01-26T09:31:36.972Z,7.37
2019-01-26T09:32:36.958Z,7.36
2019-01-26T09:33:36.949Z,7.44
2019-01-26T09:34:36.965Z,7.47
2019-01-26T09:35:36.975Z,7.43
2019-01-26T09:36:36.909Z,7.44
2019-01-26T09:37:36.902Z,7.44
2019-01-26T09:38:36.888Z,7.44
2019-01-26T09:39:36.881Z,7.44
2019-01-26T09:40:36.907Z,7.52
2019-01-26T09:41:36.878Z,7.44
2019-01-26T09:42:36.856Z,7.39
2019-01-26T09:43:36.833Z,7.42
2019-01-26T09:44:36.836Z,7.36
2019-01-26T09:45:36.829Z,7.39
2019-01-26T09:46:36.843Z,7.43
2019-01-26T09:47:36.807Z,7.39
2019-01-26T09:48:36.802Z,7.34
2019-01-26T09:49:36.772Z,7.26
2019-01-26T09:50:36.757Z,7.33
2019-01-26T09:51:36.794Z,7.26
2019-01-26T09:52:36.817Z,7.34
2019-01-26T09:53:36.746Z,7.21
2019-01-26T09:54:36.750Z,7.24
2019-01-26T09:55:36.702Z,7.24
2019-01-26T09:56:36.694Z,7.28
2019-01-26T09:57:36.682Z,7.29
2019-01-26T09:58:36.703Z,7.28
2019-01-26T09:59:36.673Z,7.34
2019-01-26T10:00:36.658Z,7.40
2019-01-26T10:01:36.669Z,7.42
2019-01-26T10:02:36.636Z,7.47
2019-01-26T10:03:36.634Z,7.52
2019-01-26T10:04:36.653Z,7.58
2019-01-26T10:05:36.598Z,7.64
2019-01-26T10:06:36.586Z,7.73
2019-01-26T10:07:36.582Z,7.88
2019-01-26T10:08:36.569Z,7.91
2019-01-26T10:09:36.580Z,7.95
2019-01-26T10:10:36.590Z,7.87
2019-01-26T10:11:36.543Z,7.99
2019-01-26T10:12:36.518Z,7.88
2019-01-26T10:13:36.534Z,8.05
2019-01-26T10:14:36.537Z,7.98
2019-01-26T10:15:36.503Z,8.05
2019-01-26T10:16:36.504Z,8.10
2019-01-26T10:17:36.576Z,8.14
2019-01-26T10:18:36.459Z,8.17
2019-01-26T10:19:36.444Z,8.23
2019-01-26T10:20:36.471Z,8.21
2019-01-26T10:21:36.504Z,8.12
2019-01-26T10:22:36.437Z,8.16
2019-01-26T10:23:36.409Z,8.19
2019-01-26T10:24:36.406Z,8.17
2019-01-26T10:25:36.379Z,8.14
2019-01-26T10:26:36.364Z,8.09
2019-01-26T10:27:36.406Z,8.29
2019-01-26T10:28:36.407Z,8.26
2019-01-26T10:29:36.329Z,8.32
2019-01-26T10:30:36.323Z,8.28
2019-01-26T10:31:36.309Z,8.26
2019-01-26T10:32:36.329Z,8.29
2019-01-26T10:33:36.289Z,8.24
2019-01-26T10:34:36.317Z,8.10
2019-01-26T10:35:36.271Z,8.12
2019-01-26T10:36:36.264Z,8.13
2019-01-26T10:37:36.246Z,8.14
2019-01-26T10:38:36.246Z,8.14
2019-01-26T10:39:36.225Z,8.12
2019-01-26T10:40:36.248Z,7.95
2019-01-26T10:41:36.199Z,7.99
2019-01-26T10:42:36.189Z,8.01
2019-01-26T10:43:36.179Z,8.10
2019-01-26T10:44:36.166Z,8.01
2019-01-26T10:45:36.171Z,7.99
2019-01-26T10:46:36.180Z,7.96
2019-01-26T10:47:36.144Z,7.99
2019-01-26T10:48:36.129Z,8.14
2019-01-26T10:49:36.116Z,8.05
2019-01-26T10:50:36.105Z,8.01
2019-01-26T10:51:36.114Z,8.02
2019-01-26T10:52:36.224Z,7.95
2019-01-26T10:53:36.073Z,8.01
2019-01-26T10:54:36.086Z,7.95
2019-01-26T10:55:36.083Z,7.99
2019-01-26T10:56:36.051Z,8.02
2019-01-26T10:57:36.026Z,8.01
2019-01-26T10:58:36.081Z,8.01
2019-01-26T10:59:36.025Z,8.06
2019-01-26T11:00:36.050Z,8.06
2019-01-26T11:01:35.991Z,8.09
2019-01-26T11:02:35.970Z,7.98
2019-01-26T11:03:35.985Z,8.01
2019-01-26T11:04:36.009Z,8.09
2019-01-26T11:05:35.938Z,8.06
2019-01-26T11:06:35.933Z,8.10
2019-01-26T11:07:35.931Z,8.02
2019-01-26T11:08:35.908Z,8.17
2019-01-26T11:09:35.901Z,8.14
2019-01-26T11:10:35.948Z,8.16
2019-01-26T11:11:35.878Z,8.13
2019-01-26T11:12:35.885Z,8.23
2019-01-26T11:13:35.855Z,8.19
2019-01-26T11:14:35.844Z,8.16
2019-01-26T11:15:35.838Z,8.13
2019-01-26T11:16:35.888Z,8.19
2019-01-26T11:17:35.811Z,8.10
2019-01-26T11:18:35.871Z,8.10
2019-01-26T11:19:35.835Z,8.14
2019-01-26T11:20:35.781Z,8.10
2019-01-26T11:21:35.775Z,7.99
2019-01-26T11:22:35.838Z,8.01
2019-01-26T11:23:35.751Z,7.99
2019-01-26T11:24:35.800Z,7.99
2019-01-26T11:25:35.784Z,8.06
2019-01-26T11:26:35.717Z,7.98
2019-01-26T11:27:35.707Z,7.99
2019-01-26T11:28:35.802Z,8.01
2019-01-26T11:29:35.727Z,8.04
2019-01-26T11:30:35.671Z,8.04
2019-01-26T11:31:35.673Z,7.96
2019-01-26T11:32:35.655Z,7.92
2019-01-26T11:33:35.654Z,8.02
2019-01-26T11:34:35.662Z,7.95
2019-01-26T11:35:35.687Z,7.99
2019-01-26T11:36:35.610Z,8.02
2019-01-26T11:37:35.595Z,7.99
2019-01-26T11:38:35.584Z,8.04
2019-01-26T11:39:35.589Z,7.95
2019-01-26T11:40:35.658Z,7.99
2019-01-26T11:41:35.548Z,7.95
2019-01-26T11:42:35.570Z,8.02
2019-01-26T11:43:35.552Z,7.96
2019-01-26T11:44:35.557Z,7.99
2019-01-26T11:45:35.525Z,7.95
2019-01-26T11:46:35.550Z,8.01
2019-01-26T11:47:35.564Z,7.95
2019-01-26T11:48:35.485Z,7.96
2019-01-26T11:49:35.469Z,8.02
2019-01-26T11:50:35.462Z,7.96
2019-01-26T11:51:35.445Z,7.98
2019-01-26T11:52:35.476Z,7.98
2019-01-26T11:53:35.446Z,8.04
2019-01-26T11:54:35.410Z,8.05
2019-01-26T11:55:35.449Z,8.02
2019-01-26T11:56:35.388Z,8.06
2019-01-26T11:57:35.375Z,8.04
2019-01-26T11:58:35.450Z,8.04
2019-01-26T11:59:35.364Z,8.04
2019-01-26T12:00:35.349Z,7.96
2019-01-26T12:01:35.338Z,8.01
2019-01-26T12:02:35.338Z,7.99
2019-01-26T12:03:35.311Z,8.05
2019-01-26T12:04:35.338Z,8.17
2019-01-26T12:05:35.301Z,8.16
2019-01-26T12:06:35.284Z,8.21
2019-01-26T12:07:35.270Z,8.29
2019-01-26T12:08:35.271Z,8.34
2019-01-26T12:09:35.259Z,8.39
2019-01-26T12:10:35.300Z,8.52
2019-01-26T12:11:35.224Z,8.53
2019-01-26T12:12:35.220Z,8.53
2019-01-26T12:13:35.210Z,8.63
2019-01-26T12:14:35.205Z,8.81
2019-01-26T12:15:35.186Z,8.83
2019-01-26T12:16:35.227Z,8.90
2019-01-26T12:17:36.550Z,8.88
2019-01-26T12:18:35.147Z,8.77
2019-01-26T12:19:35.142Z,8.70
2019-01-26T12:20:35.138Z,8.70
2019-01-26T12:21:35.127Z,8.70
2019-01-26T12:22:35.214Z,8.70
2019-01-26T12:23:35.096Z,8.70
2019-01-26T12:24:35.084Z,8.63
2019-01-26T12:25:35.082Z,8.67
2019-01-26T12:26:35.063Z,8.71
2019-01-26T12:27:35.067Z,8.71
2019-01-26T12:28:35.086Z,8.70
2019-01-26T12:29:35.028Z,8.67
2019-01-26T12:30:35.033Z,8.77
2019-01-26T12:31:35.007Z,8.65
2019-01-26T12:32:35.001Z,8.59
2019-01-26T12:33:34.990Z,8.72
2019-01-26T12:34:35.008Z,8.70
2019-01-26T12:35:34.971Z,8.62
2019-01-26T12:36:34.964Z,8.72
2019-01-26T12:37:34.958Z,8.86
2019-01-26T12:38:34.949Z,8.88
2019-01-26T12:39:34.928Z,8.86
2019-01-26T12:40:34.966Z,9.01
2019-01-26T12:41:34.905Z,8.98
2019-01-26T12:42:34.901Z,8.98
2019-01-26T12:43:34.890Z,8.95
2019-01-26T12:44:34.894Z,8.92
2019-01-26T12:45:34.855Z,9.08
2019-01-26T12:46:34.882Z,9.11
2019-01-26T12:47:34.852Z,9.26
2019-01-26T12:48:35.328Z,9.30
2019-01-26T12:49:34.871Z,9.40
2019-01-26T12:50:34.812Z,9.52
2019-01-26T12:51:34.791Z,9.41
2019-01-26T12:52:34.836Z,9.41
2019-01-26T12:53:34.843Z,9.27
2019-01-26T12:54:34.761Z,9.33
2019-01-26T12:55:34.758Z,9.24
2019-01-26T12:56:34.736Z,9.30
2019-01-26T12:57:34.729Z,9.40
2019-01-26T12:58:34.764Z,9.30
2019-01-26T12:59:34.745Z,9.47
2019-01-26T13:00:34.704Z,9.57
2019-01-26T13:01:34.697Z,9.65
2019-01-26T13:02:34.685Z,9.66
2019-01-26T13:03:34.660Z,9.80
2019-01-26T13:04:34.696Z,9.83
2019-01-26T13:05:34.644Z,9.80
2019-01-26T13:06:34.655Z,9.73
2019-01-26T13:07:34.618Z,9.65
2019-01-26T13:08:34.614Z,9.66
2019-01-26T13:09:34.604Z,9.63
2019-01-26T13:10:34.645Z,9.65
2019-01-26T13:11:34.569Z,9.62
2019-01-26T13:12:34.562Z,9.54
2019-01-26T13:13:34.550Z,9.55
2019-01-26T13:14:34.542Z,9.57
2019-01-26T13:15:34.539Z,9.65
2019-01-26T13:16:34.543Z,9.65
2019-01-26T13:17:34.503Z,9.54
2019-01-26T13:18:34.495Z,9.70